sensor_id;sensor_type;location;lat;lon;timestamp;temperature;humidity
9975;DHT22;5028;50.974;4.968;2022-08-27T00:02:25;16.50;99.90
9975;DHT22;5028;50.974;4.968;2022-08-27T00:05:00;16.40;99.90
9975;DHT22;5028;50.974;4.968;2022-08-27T00:07:42;16.50;99.90
9975;DHT22;5028;50.974;4.968;2022-08-27T00:10:20;16.50;99.90
9975;DHT22;5028;50.974;4.968;2022-08-27T00:12:51;16.50;99.90
9975;DHT22;5028;50.974;4.968;2022-08-27T00:15:28;16.50;99.90
9975;DHT22;5028;50.974;4.968;2022-08-27T00:17:56;16.40;99.90
9975;DHT22;5028;50.974;4.968;2022-08-27T00:20:31;16.40;99.90
9975;DHT22;5028;50.974;4.968;2022-08-27T00:22:59;16.40;99.90
9975;DHT22;5028;50.974;4.968;2022-08-27T00:25:35;16.40;99.90
9975;DHT22;5028;50.974;4.968;2022-08-27T00:28:05;16.40;99.90
9975;DHT22;5028;50.974;4.968;2022-08-27T00:30:40;16.30;99.90
9975;DHT22;5028;50.974;4.968;2022-08-27T00:33:09;16.30;99.90
9975;DHT22;5028;50.974;4.968;2022-08-27T00:35:44;16.30;99.90
9975;DHT22;5028;50.974;4.968;2022-08-27T00:38:13;16.20;99.90
9975;DHT22;5028;50.974;4.968;2022-08-27T00:40:48;16.10;99.90
9975;DHT22;5028;50.974;4.968;2022-08-27T00:43:22;16.00;99.90
9975;DHT22;5028;50.974;4.968;2022-08-27T00:46:13;16.00;99.90
9975;DHT22;5028;50.974;4.968;2022-08-27T00:48:45;16.00;99.90
9975;DHT22;5028;50.974;4.968;2022-08-27T00:51:20;15.90;99.90
9975;DHT22;5028;50.974;4.968;2022-08-27T00:53:49;15.90;99.90
9975;DHT22;5028;50.974;4.968;2022-08-27T00:56:27;15.90;99.90
9975;DHT22;5028;50.974;4.968;2022-08-27T00:59:05;15.90;99.90
9975;DHT22;5028;50.974;4.968;2022-08-27T01:01:54;15.80;99.90
9975;DHT22;5028;50.974;4.968;2022-08-27T01:04:53;15.80;99.90
9975;DHT22;5028;50.974;4.968;2022-08-27T01:07:31;15.70;99.90
9975;DHT22;5028;50.974;4.968;2022-08-27T01:10:02;15.70;99.90
9975;DHT22;5028;50.974;4.968;2022-08-27T01:12:38;15.60;99.90
9975;DHT22;5028;50.974;4.968;2022-08-27T01:15:13;15.60;99.90
9975;DHT22;5028;50.974;4.968;2022-08-27T01:17:48;15.60;99.90
9975;DHT22;5028;50.974;4.968;2022-08-27T01:20:20;15.60;99.90
9975;DHT22;5028;50.974;4.968;2022-08-27T01:23:01;15.60;99.90
9975;DHT22;5028;50.974;4.968;2022-08-27T01:25:32;15.60;99.90
9975;DHT22;5028;50.974;4.968;2022-08-27T01:28:08;15.60;99.90
9975;DHT22;5028;50.974;4.968;2022-08-27T01:30:38;15.60;99.90
9975;DHT22;5028;50.974;4.968;2022-08-27T01:33:16;15.50;99.90
9975;DHT22;5028;50.974;4.968;2022-08-27T01:35:47;15.50;99.90
9975;DHT22;5028;50.974;4.968;2022-08-27T01:38:23;15.40;99.90
9975;DHT22;5028;50.974;4.968;2022-08-27T01:40:59;15.40;99.90
9975;DHT22;5028;50.974;4.968;2022-08-27T01:43:35;15.30;99.90
9975;DHT22;5028;50.974;4.968;2022-08-27T01:46:03;15.30;99.90
9975;DHT22;5028;50.974;4.968;2022-08-27T01:48:38;15.20;99.90
9975;DHT22;5028;50.974;4.968;2022-08-27T01:51:06;15.30;99.90
9975;DHT22;5028;50.974;4.968;2022-08-27T01:53:42;15.20;99.90
9975;DHT22;5028;50.974;4.968;2022-08-27T01:56:12;15.30;99.90
9975;DHT22;5028;50.974;4.968;2022-08-27T01:58:47;15.20;99.90
9975;DHT22;5028;50.974;4.968;2022-08-27T02:01:15;15.20;99.90
9975;DHT22;5028;50.974;4.968;2022-08-27T02:03:50;15.20;99.90
9975;DHT22;5028;50.974;4.968;2022-08-27T02:06:18;15.10;99.90
9975;DHT22;5028;50.974;4.968;2022-08-27T02:09:00;15.20;99.90
9975;DHT22;5028;50.974;4.968;2022-08-27T02:11:30;15.10;99.90
9975;DHT22;5028;50.974;4.968;2022-08-27T02:14:10;15.10;99.90
9975;DHT22;5028;50.974;4.968;2022-08-27T02:16:46;15.10;99.90
9975;DHT22;5028;50.974;4.968;2022-08-27T02:19:19;15.00;99.90
9975;DHT22;5028;50.974;4.968;2022-08-27T02:21:54;15.10;99.90
9975;DHT22;5028;50.974;4.968;2022-08-27T02:24:26;15.00;99.90
9975;DHT22;5028;50.974;4.968;2022-08-27T02:27:02;15.00;99.90
9975;DHT22;5028;50.974;4.968;2022-08-27T02:29:31;15.00;99.90
9975;DHT22;5028;50.974;4.968;2022-08-27T02:32:06;15.00;99.90
9975;DHT22;5028;50.974;4.968;2022-08-27T02:34:48;15.00;99.90
9975;DHT22;5028;50.974;4.968;2022-08-27T02:37:23;15.00;99.90
9975;DHT22;5028;50.974;4.968;2022-08-27T02:39:51;15.00;99.90
9975;DHT22;5028;50.974;4.968;2022-08-27T02:42:28;15.00;99.90
9975;DHT22;5028;50.974;4.968;2022-08-27T02:44:56;15.00;99.90
9975;DHT22;5028;50.974;4.968;2022-08-27T02:47:31;15.00;99.90
9975;DHT22;5028;50.974;4.968;2022-08-27T02:50:00;15.00;99.90
9975;DHT22;5028;50.974;4.968;2022-08-27T02:52:35;14.90;99.90
9975;DHT22;5028;50.974;4.968;2022-08-27T02:55:05;14.90;99.90
9975;DHT22;5028;50.974;4.968;2022-08-27T02:57:45;14.90;99.90
9975;DHT22;5028;50.974;4.968;2022-08-27T03:00:15;14.90;99.90
9975;DHT22;5028;50.974;4.968;2022-08-27T03:02:51;14.90;99.90
9975;DHT22;5028;50.974;4.968;2022-08-27T03:05:26;14.90;99.90
9975;DHT22;5028;50.974;4.968;2022-08-27T03:08:01;14.90;99.90
9975;DHT22;5028;50.974;4.968;2022-08-27T03:10:29;14.90;99.90
9975;DHT22;5028;50.974;4.968;2022-08-27T03:13:05;14.90;99.90
9975;DHT22;5028;50.974;4.968;2022-08-27T03:15:33;14.90;99.90
9975;DHT22;5028;50.974;4.968;2022-08-27T03:18:08;14.90;99.90
9975;DHT22;5028;50.974;4.968;2022-08-27T03:20:48;14.90;99.90
9975;DHT22;5028;50.974;4.968;2022-08-27T03:23:25;14.90;99.90
9975;DHT22;5028;50.974;4.968;2022-08-27T03:25:56;15.00;99.90
9975;DHT22;5028;50.974;4.968;2022-08-27T03:28:33;15.00;99.90
9975;DHT22;5028;50.974;4.968;2022-08-27T03:31:05;15.00;99.90
9975;DHT22;5028;50.974;4.968;2022-08-27T03:33:41;15.00;99.90
9975;DHT22;5028;50.974;4.968;2022-08-27T03:36:10;15.10;99.90
9975;DHT22;5028;50.974;4.968;2022-08-27T03:38:45;15.10;99.90
9975;DHT22;5028;50.974;4.968;2022-08-27T03:41:13;15.10;99.90
9975;DHT22;5028;50.974;4.968;2022-08-27T03:44:11;15.00;99.90
9975;DHT22;5028;50.974;4.968;2022-08-27T03:46:48;15.00;99.90
9975;DHT22;5028;50.974;4.968;2022-08-27T03:49:23;14.90;99.90
9975;DHT22;5028;50.974;4.968;2022-08-27T03:51:52;14.90;99.90
9975;DHT22;5028;50.974;4.968;2022-08-27T03:54:27;14.90;99.90
9975;DHT22;5028;50.974;4.968;2022-08-27T03:56:57;14.90;99.90
9975;DHT22;5028;50.974;4.968;2022-08-27T03:59:33;14.80;99.90
9975;DHT22;5028;50.974;4.968;2022-08-27T04:02:02;14.80;99.90
9975;DHT22;5028;50.974;4.968;2022-08-27T04:04:40;14.80;99.90
9975;DHT22;5028;50.974;4.968;2022-08-27T04:07:22;14.70;99.90
9975;DHT22;5028;50.974;4.968;2022-08-27T04:09:57;14.60;99.90
9975;DHT22;5028;50.974;4.968;2022-08-27T04:12:25;14.60;99.90
9975;DHT22;5028;50.974;4.968;2022-08-27T04:15:05;14.60;99.90
9975;DHT22;5028;50.974;4.968;2022-08-27T04:17:34;14.60;99.90
9975;DHT22;5028;50.974;4.968;2022-08-27T04:20:09;14.60;99.90
9975;DHT22;5028;50.974;4.968;2022-08-27T04:22:57;14.60;99.90
9975;DHT22;5028;50.974;4.968;2022-08-27T04:25:32;14.50;99.90
9975;DHT22;5028;50.974;4.968;2022-08-27T04:28:01;14.50;99.90
9975;DHT22;5028;50.974;4.968;2022-08-27T04:30:39;14.40;99.90
9975;DHT22;5028;50.974;4.968;2022-08-27T04:33:08;14.40;99.90
9975;DHT22;5028;50.974;4.968;2022-08-27T04:35:44;14.40;99.90
9975;DHT22;5028;50.974;4.968;2022-08-27T04:38:12;14.30;99.90
9975;DHT22;5028;50.974;4.968;2022-08-27T04:40:47;14.30;99.90
9975;DHT22;5028;50.974;4.968;2022-08-27T04:43:39;14.20;99.90
9975;DHT22;5028;50.974;4.968;2022-08-27T04:46:09;14.20;99.90
9975;DHT22;5028;50.974;4.968;2022-08-27T04:48:38;14.20;99.90
9975;DHT22;5028;50.974;4.968;2022-08-27T04:51:15;14.30;99.90
9975;DHT22;5028;50.974;4.968;2022-08-27T04:53:44;14.20;99.90
9975;DHT22;5028;50.974;4.968;2022-08-27T04:56:20;14.30;99.90
9975;DHT22;5028;50.974;4.968;2022-08-27T04:58:50;14.20;99.90
9975;DHT22;5028;50.974;4.968;2022-08-27T05:01:27;14.20;99.90
9975;DHT22;5028;50.974;4.968;2022-08-27T05:03:56;14.20;99.90
9975;DHT22;5028;50.974;4.968;2022-08-27T05:06:33;14.20;99.90
9975;DHT22;5028;50.974;4.968;2022-08-27T05:09:20;14.10;99.90
9975;DHT22;5028;50.974;4.968;2022-08-27T05:11:52;14.10;99.90
9975;DHT22;5028;50.974;4.968;2022-08-27T05:14:27;14.10;99.90
9975;DHT22;5028;50.974;4.968;2022-08-27T05:16:59;14.10;99.90
9975;DHT22;5028;50.974;4.968;2022-08-27T05:19:34;14.10;99.90
9975;DHT22;5028;50.974;4.968;2022-08-27T05:22:02;14.10;99.90
9975;DHT22;5028;50.974;4.968;2022-08-27T05:24:37;14.20;99.90
9975;DHT22;5028;50.974;4.968;2022-08-27T05:27:05;14.20;99.90
9975;DHT22;5028;50.974;4.968;2022-08-27T05:29:41;14.20;99.90
9975;DHT22;5028;50.974;4.968;2022-08-27T05:32:11;14.20;99.90
9975;DHT22;5028;50.974;4.968;2022-08-27T05:34:46;14.30;99.90
9975;DHT22;5028;50.974;4.968;2022-08-27T05:37:14;14.30;99.90
9975;DHT22;5028;50.974;4.968;2022-08-27T05:39:49;14.40;99.90
9975;DHT22;5028;50.974;4.968;2022-08-27T05:42:18;14.40;99.90
9975;DHT22;5028;50.974;4.968;2022-08-27T05:44:53;14.50;99.90
9975;DHT22;5028;50.974;4.968;2022-08-27T05:47:23;14.40;99.90
9975;DHT22;5028;50.974;4.968;2022-08-27T05:50:03;14.50;99.90
9975;DHT22;5028;50.974;4.968;2022-08-27T05:52:34;14.50;99.90
9975;DHT22;5028;50.974;4.968;2022-08-27T05:55:09;14.60;99.90
9975;DHT22;5028;50.974;4.968;2022-08-27T05:57:38;14.70;99.90
9975;DHT22;5028;50.974;4.968;2022-08-27T06:00:13;14.80;99.90
9975;DHT22;5028;50.974;4.968;2022-08-27T06:03:01;14.80;99.90
9975;DHT22;5028;50.974;4.968;2022-08-27T06:05:43;14.80;99.90
9975;DHT22;5028;50.974;4.968;2022-08-27T06:08:24;14.90;99.90
9975;DHT22;5028;50.974;4.968;2022-08-27T06:11:00;14.90;99.90
9975;DHT22;5028;50.974;4.968;2022-08-27T06:13:30;14.90;99.90
9975;DHT22;5028;50.974;4.968;2022-08-27T06:16:12;14.90;99.90
9975;DHT22;5028;50.974;4.968;2022-08-27T06:18:45;14.90;99.90
9975;DHT22;5028;50.974;4.968;2022-08-27T06:21:20;15.00;99.90
9975;DHT22;5028;50.974;4.968;2022-08-27T06:23:50;15.00;99.90
9975;DHT22;5028;50.974;4.968;2022-08-27T06:26:26;15.10;99.90
9975;DHT22;5028;50.974;4.968;2022-08-27T06:28:54;15.20;99.90
9975;DHT22;5028;50.974;4.968;2022-08-27T06:31:30;15.20;99.90
9975;DHT22;5028;50.974;4.968;2022-08-27T06:34:02;15.20;99.90
9975;DHT22;5028;50.974;4.968;2022-08-27T06:36:40;15.40;99.90
9975;DHT22;5028;50.974;4.968;2022-08-27T06:39:09;15.40;99.90
9975;DHT22;5028;50.974;4.968;2022-08-27T06:41:47;15.50;99.90
9975;DHT22;5028;50.974;4.968;2022-08-27T06:44:17;15.60;99.90
9975;DHT22;5028;50.974;4.968;2022-08-27T06:46:53;15.60;99.90
9975;DHT22;5028;50.974;4.968;2022-08-27T06:49:24;15.60;99.90
9975;DHT22;5028;50.974;4.968;2022-08-27T06:51:59;15.70;99.90
9975;DHT22;5028;50.974;4.968;2022-08-27T06:54:28;15.70;99.90
9975;DHT22;5028;50.974;4.968;2022-08-27T06:57:02;15.80;99.90
9975;DHT22;5028;50.974;4.968;2022-08-27T06:59:30;15.80;99.90
9975;DHT22;5028;50.974;4.968;2022-08-27T07:02:06;15.80;99.90
9975;DHT22;5028;50.974;4.968;2022-08-27T07:04:36;15.90;99.90
9975;DHT22;5028;50.974;4.968;2022-08-27T07:07:18;15.90;99.90
9975;DHT22;5028;50.974;4.968;2022-08-27T07:10:01;15.90;99.90
9975;DHT22;5028;50.974;4.968;2022-08-27T07:12:36;16.00;99.90
9975;DHT22;5028;50.974;4.968;2022-08-27T07:15:05;16.00;99.90
9975;DHT22;5028;50.974;4.968;2022-08-27T07:17:41;16.20;99.90
9975;DHT22;5028;50.974;4.968;2022-08-27T07:20:12;16.30;99.90
9975;DHT22;5028;50.974;4.968;2022-08-27T07:22:48;16.20;99.90
9975;DHT22;5028;50.974;4.968;2022-08-27T07:25:18;16.40;99.90
9975;DHT22;5028;50.974;4.968;2022-08-27T07:27:52;16.40;99.90
9975;DHT22;5028;50.974;4.968;2022-08-27T07:30:20;16.50;99.90
9975;DHT22;5028;50.974;4.968;2022-08-27T07:32:55;16.40;99.90
9975;DHT22;5028;50.974;4.968;2022-08-27T07:35:25;16.50;99.90
9975;DHT22;5028;50.974;4.968;2022-08-27T07:37:59;16.50;99.90
9975;DHT22;5028;50.974;4.968;2022-08-27T07:40:27;16.60;99.90
9975;DHT22;5028;50.974;4.968;2022-08-27T07:43:04;16.70;99.90
9975;DHT22;5028;50.974;4.968;2022-08-27T07:46:00;16.80;99.90
9975;DHT22;5028;50.974;4.968;2022-08-27T07:48:28;16.90;99.90
9975;DHT22;5028;50.974;4.968;2022-08-27T07:51:12;16.80;99.90
9975;DHT22;5028;50.974;4.968;2022-08-27T07:53:41;16.90;99.90
9975;DHT22;5028;50.974;4.968;2022-08-27T07:56:16;17.00;99.90
9975;DHT22;5028;50.974;4.968;2022-08-27T07:58:45;17.00;99.90
9975;DHT22;5028;50.974;4.968;2022-08-27T08:01:14;17.20;99.90
9975;DHT22;5028;50.974;4.968;2022-08-27T08:03:48;17.20;99.90
9975;DHT22;5028;50.974;4.968;2022-08-27T08:06:19;17.30;99.90
9975;DHT22;5028;50.974;4.968;2022-08-27T08:08:53;17.50;99.90
9975;DHT22;5028;50.974;4.968;2022-08-27T08:11:29;17.70;99.90
9975;DHT22;5028;50.974;4.968;2022-08-27T08:13:57;17.80;99.90
9975;DHT22;5028;50.974;4.968;2022-08-27T08:16:32;17.90;99.90
9975;DHT22;5028;50.974;4.968;2022-08-27T08:19:01;18.10;99.90
9975;DHT22;5028;50.974;4.968;2022-08-27T08:21:39;18.20;99.90
9975;DHT22;5028;50.974;4.968;2022-08-27T08:24:08;18.30;99.90
9975;DHT22;5028;50.974;4.968;2022-08-27T08:26:44;18.30;99.90
9975;DHT22;5028;50.974;4.968;2022-08-27T08:29:13;18.20;99.90
9975;DHT22;5028;50.974;4.968;2022-08-27T08:31:48;18.20;99.90
9975;DHT22;5028;50.974;4.968;2022-08-27T08:34:17;18.30;99.90
9975;DHT22;5028;50.974;4.968;2022-08-27T08:36:54;18.30;99.90
9975;DHT22;5028;50.974;4.968;2022-08-27T08:39:22;18.40;99.90
9975;DHT22;5028;50.974;4.968;2022-08-27T08:41:59;18.40;99.90
9975;DHT22;5028;50.974;4.968;2022-08-27T08:44:31;18.50;99.90
9975;DHT22;5028;50.974;4.968;2022-08-27T08:47:11;18.60;99.90
9975;DHT22;5028;50.974;4.968;2022-08-27T08:49:47;18.80;99.90
9975;DHT22;5028;50.974;4.968;2022-08-27T08:52:37;18.90;99.90
9975;DHT22;5028;50.974;4.968;2022-08-27T08:55:14;19.00;99.90
9975;DHT22;5028;50.974;4.968;2022-08-27T08:57:58;19.20;99.90
9975;DHT22;5028;50.974;4.968;2022-08-27T09:00:27;19.40;99.90
9975;DHT22;5028;50.974;4.968;2022-08-27T09:03:02;19.50;99.90
9975;DHT22;5028;50.974;4.968;2022-08-27T09:05:31;19.40;99.90
9975;DHT22;5028;50.974;4.968;2022-08-27T09:08:23;19.40;99.90
9975;DHT22;5028;50.974;4.968;2022-08-27T09:11:13;19.20;99.90
9975;DHT22;5028;50.974;4.968;2022-08-27T09:13:55;19.10;99.90
9975;DHT22;5028;50.974;4.968;2022-08-27T09:16:26;19.10;99.90
9975;DHT22;5028;50.974;4.968;2022-08-27T09:19:02;19.10;99.90
9975;DHT22;5028;50.974;4.968;2022-08-27T09:21:39;19.00;99.90
9975;DHT22;5028;50.974;4.968;2022-08-27T09:24:25;19.10;99.90
9975;DHT22;5028;50.974;4.968;2022-08-27T09:26:55;19.20;99.90
9975;DHT22;5028;50.974;4.968;2022-08-27T09:29:29;19.20;99.90
9975;DHT22;5028;50.974;4.968;2022-08-27T09:32:03;19.10;99.90
9975;DHT22;5028;50.974;4.968;2022-08-27T09:34:40;19.10;99.90
9975;DHT22;5028;50.974;4.968;2022-08-27T09:37:11;19.00;99.90
9975;DHT22;5028;50.974;4.968;2022-08-27T09:40:06;19.00;99.90
9975;DHT22;5028;50.974;4.968;2022-08-27T09:42:50;19.00;99.90
9975;DHT22;5028;50.974;4.968;2022-08-27T09:45:28;19.00;99.90
9975;DHT22;5028;50.974;4.968;2022-08-27T09:48:04;19.20;99.90
9975;DHT22;5028;50.974;4.968;2022-08-27T09:50:45;19.30;99.90
9975;DHT22;5028;50.974;4.968;2022-08-27T09:53:19;19.40;99.90
9975;DHT22;5028;50.974;4.968;2022-08-27T09:55:58;19.50;99.90
9975;DHT22;5028;50.974;4.968;2022-08-27T09:58:29;19.60;99.90
9975;DHT22;5028;50.974;4.968;2022-08-27T10:01:16;19.70;99.90
9975;DHT22;5028;50.974;4.968;2022-08-27T10:03:44;19.70;99.90
9975;DHT22;5028;50.974;4.968;2022-08-27T10:06:26;19.80;99.90
9975;DHT22;5028;50.974;4.968;2022-08-27T10:09:13;19.90;99.90
9975;DHT22;5028;50.974;4.968;2022-08-27T10:11:58;20.40;99.90
9975;DHT22;5028;50.974;4.968;2022-08-27T10:14:30;21.10;99.90
9975;DHT22;5028;50.974;4.968;2022-08-27T10:17:11;21.40;99.90
9975;DHT22;5028;50.974;4.968;2022-08-27T10:19:56;21.60;99.90
9975;DHT22;5028;50.974;4.968;2022-08-27T10:22:40;21.70;99.90
9975;DHT22;5028;50.974;4.968;2022-08-27T10:25:20;21.50;99.90
9975;DHT22;5028;50.974;4.968;2022-08-27T10:28:05;21.30;99.90
9975;DHT22;5028;50.974;4.968;2022-08-27T10:30:47;21.00;99.90
9975;DHT22;5028;50.974;4.968;2022-08-27T10:33:30;20.80;99.90
9975;DHT22;5028;50.974;4.968;2022-08-27T10:36:04;20.80;99.90
9975;DHT22;5028;50.974;4.968;2022-08-27T10:38:46;21.00;99.90
9975;DHT22;5028;50.974;4.968;2022-08-27T10:41:24;21.00;99.90
9975;DHT22;5028;50.974;4.968;2022-08-27T10:49:59;20.40;99.90
9975;DHT22;5028;50.974;4.968;2022-08-27T10:52:35;20.30;99.90
9975;DHT22;5028;50.974;4.968;2022-08-27T10:55:20;20.20;99.90
9975;DHT22;5028;50.974;4.968;2022-08-27T10:58:10;20.30;99.90
9975;DHT22;5028;50.974;4.968;2022-08-27T11:00:56;20.30;99.90
9975;DHT22;5028;50.974;4.968;2022-08-27T11:03:33;20.30;99.90
9975;DHT22;5028;50.974;4.968;2022-08-27T11:06:14;20.40;99.90
9975;DHT22;5028;50.974;4.968;2022-08-27T11:09:05;20.50;99.90
9975;DHT22;5028;50.974;4.968;2022-08-27T11:11:46;20.60;99.90
9975;DHT22;5028;50.974;4.968;2022-08-27T11:14:40;20.60;99.90
9975;DHT22;5028;50.974;4.968;2022-08-27T11:17:22;20.60;99.90
9975;DHT22;5028;50.974;4.968;2022-08-27T11:20:05;20.70;99.90
9975;DHT22;5028;50.974;4.968;2022-08-27T11:22:48;20.70;99.90
9975;DHT22;5028;50.974;4.968;2022-08-27T11:25:29;20.80;99.90
9975;DHT22;5028;50.974;4.968;2022-08-27T11:28:07;20.90;99.90
9975;DHT22;5028;50.974;4.968;2022-08-27T11:30:43;20.80;99.90
9975;DHT22;5028;50.974;4.968;2022-08-27T11:33:28;20.70;99.90
9975;DHT22;5028;50.974;4.968;2022-08-27T11:36:12;20.70;99.90
9975;DHT22;5028;50.974;4.968;2022-08-27T11:38:53;20.80;99.90
9975;DHT22;5028;50.974;4.968;2022-08-27T11:44:28;21.00;99.90
9975;DHT22;5028;50.974;4.968;2022-08-27T11:47:06;21.10;99.90
9975;DHT22;5028;50.974;4.968;2022-08-27T11:49:44;21.10;99.90
9975;DHT22;5028;50.974;4.968;2022-08-27T11:52:23;21.10;99.90
9975;DHT22;5028;50.974;4.968;2022-08-27T11:55:12;21.10;99.90
9975;DHT22;5028;50.974;4.968;2022-08-27T11:57:41;21.10;99.90
9975;DHT22;5028;50.974;4.968;2022-08-27T12:00:21;21.30;99.90
9975;DHT22;5028;50.974;4.968;2022-08-27T12:02:57;21.30;99.90
9975;DHT22;5028;50.974;4.968;2022-08-27T12:05:36;21.30;99.90
9975;DHT22;5028;50.974;4.968;2022-08-27T12:08:17;21.30;99.90
9975;DHT22;5028;50.974;4.968;2022-08-27T12:11:11;21.30;99.90
9975;DHT22;5028;50.974;4.968;2022-08-27T12:13:44;21.50;99.90
9975;DHT22;5028;50.974;4.968;2022-08-27T12:16:29;21.60;99.90
9975;DHT22;5028;50.974;4.968;2022-08-27T12:19:22;21.60;99.90
9975;DHT22;5028;50.974;4.968;2022-08-27T12:22:12;21.70;99.90
9975;DHT22;5028;50.974;4.968;2022-08-27T12:24:50;21.80;99.90
9975;DHT22;5028;50.974;4.968;2022-08-27T12:27:29;21.90;99.90
9975;DHT22;5028;50.974;4.968;2022-08-27T12:30:06;21.90;99.90
9975;DHT22;5028;50.974;4.968;2022-08-27T12:32:55;22.00;99.90
9975;DHT22;5028;50.974;4.968;2022-08-27T12:35:30;22.10;99.90
9975;DHT22;5028;50.974;4.968;2022-08-27T12:38:13;22.30;99.90
9975;DHT22;5028;50.974;4.968;2022-08-27T12:40:48;22.40;99.90
9975;DHT22;5028;50.974;4.968;2022-08-27T12:43:26;22.60;99.90
9975;DHT22;5028;50.974;4.968;2022-08-27T12:45:57;22.80;99.90
9975;DHT22;5028;50.974;4.968;2022-08-27T12:48:37;22.80;99.90
9975;DHT22;5028;50.974;4.968;2022-08-27T12:51:12;22.30;99.90
9975;DHT22;5028;50.974;4.968;2022-08-27T12:53:49;22.00;99.90
9975;DHT22;5028;50.974;4.968;2022-08-27T12:56:48;21.90;99.90
9975;DHT22;5028;50.974;4.968;2022-08-27T12:59:58;21.80;99.90
9975;DHT22;5028;50.974;4.968;2022-08-27T13:02:47;21.70;99.90
9975;DHT22;5028;50.974;4.968;2022-08-27T13:05:36;21.70;99.90
9975;DHT22;5028;50.974;4.968;2022-08-27T13:08:21;21.60;99.90
9975;DHT22;5028;50.974;4.968;2022-08-27T13:11:06;21.70;99.90
9975;DHT22;5028;50.974;4.968;2022-08-27T13:13:41;21.70;99.90
9975;DHT22;5028;50.974;4.968;2022-08-27T13:16:17;21.60;99.90
9975;DHT22;5028;50.974;4.968;2022-08-27T13:18:47;21.70;99.90
9975;DHT22;5028;50.974;4.968;2022-08-27T13:21:26;21.80;99.90
9975;DHT22;5028;50.974;4.968;2022-08-27T13:23:56;21.90;99.90
9975;DHT22;5028;50.974;4.968;2022-08-27T13:26:34;22.00;99.90
9975;DHT22;5028;50.974;4.968;2022-08-27T13:29:06;22.00;99.90
9975;DHT22;5028;50.974;4.968;2022-08-27T13:31:43;22.10;99.90
9975;DHT22;5028;50.974;4.968;2022-08-27T13:34:16;22.40;99.90
9975;DHT22;5028;50.974;4.968;2022-08-27T13:36:57;22.60;99.90
9975;DHT22;5028;50.974;4.968;2022-08-27T13:39:26;22.70;99.90
9975;DHT22;5028;50.974;4.968;2022-08-27T13:42:02;22.60;99.90
9975;DHT22;5028;50.974;4.968;2022-08-27T13:44:35;22.30;99.90
9975;DHT22;5028;50.974;4.968;2022-08-27T13:47:16;22.40;99.90
9975;DHT22;5028;50.974;4.968;2022-08-27T13:49:46;22.50;99.90
9975;DHT22;5028;50.974;4.968;2022-08-27T13:52:25;22.50;99.90
9975;DHT22;5028;50.974;4.968;2022-08-27T13:54:59;22.50;99.90
9975;DHT22;5028;50.974;4.968;2022-08-27T13:57:41;22.40;99.90
9975;DHT22;5028;50.974;4.968;2022-08-27T14:00:17;22.40;99.90
9975;DHT22;5028;50.974;4.968;2022-08-27T14:02:54;22.60;99.90
9975;DHT22;5028;50.974;4.968;2022-08-27T14:05:29;22.80;99.90
9975;DHT22;5028;50.974;4.968;2022-08-27T14:08:13;22.70;99.90
9975;DHT22;5028;50.974;4.968;2022-08-27T14:10:45;22.60;99.90
9975;DHT22;5028;50.974;4.968;2022-08-27T14:13:22;22.30;99.90
9975;DHT22;5028;50.974;4.968;2022-08-27T14:15:53;22.30;99.90
9975;DHT22;5028;50.974;4.968;2022-08-27T14:18:31;22.40;99.90
9975;DHT22;5028;50.974;4.968;2022-08-27T14:21:20;22.70;99.90
9975;DHT22;5028;50.974;4.968;2022-08-27T14:23:55;22.80;99.90
9975;DHT22;5028;50.974;4.968;2022-08-27T14:26:25;22.70;99.90
9975;DHT22;5028;50.974;4.968;2022-08-27T14:29:00;22.70;99.90
9975;DHT22;5028;50.974;4.968;2022-08-27T14:31:29;22.60;99.90
9975;DHT22;5028;50.974;4.968;2022-08-27T14:34:06;22.60;99.90
9975;DHT22;5028;50.974;4.968;2022-08-27T14:36:36;22.70;99.90
9975;DHT22;5028;50.974;4.968;2022-08-27T14:39:19;22.50;99.90
9975;DHT22;5028;50.974;4.968;2022-08-27T14:41:53;22.50;99.90
9975;DHT22;5028;50.974;4.968;2022-08-27T14:44:28;22.60;99.90
9975;DHT22;5028;50.974;4.968;2022-08-27T14:46:59;22.70;99.90
9975;DHT22;5028;50.974;4.968;2022-08-27T14:49:37;22.50;99.90
9975;DHT22;5028;50.974;4.968;2022-08-27T14:52:07;22.40;99.90
9975;DHT22;5028;50.974;4.968;2022-08-27T14:54:42;22.40;99.90
9975;DHT22;5028;50.974;4.968;2022-08-27T14:57:11;22.40;99.90
9975;DHT22;5028;50.974;4.968;2022-08-27T14:59:45;22.20;99.90
9975;DHT22;5028;50.974;4.968;2022-08-27T15:02:16;22.00;99.90
9975;DHT22;5028;50.974;4.968;2022-08-27T15:04:53;21.90;99.90
9975;DHT22;5028;50.974;4.968;2022-08-27T15:07:22;21.70;99.90
9975;DHT22;5028;50.974;4.968;2022-08-27T15:10:07;21.60;99.90
9975;DHT22;5028;50.974;4.968;2022-08-27T15:12:36;21.60;99.90
9975;DHT22;5028;50.974;4.968;2022-08-27T15:15:12;21.60;99.90
9975;DHT22;5028;50.974;4.968;2022-08-27T15:17:43;21.70;99.90
9975;DHT22;5028;50.974;4.968;2022-08-27T15:20:19;21.70;99.90
9975;DHT22;5028;50.974;4.968;2022-08-27T15:22:50;21.70;99.90
9975;DHT22;5028;50.974;4.968;2022-08-27T15:25:26;21.70;99.90
9975;DHT22;5028;50.974;4.968;2022-08-27T15:27:55;21.70;99.90
9975;DHT22;5028;50.974;4.968;2022-08-27T15:30:29;21.80;99.90
9975;DHT22;5028;50.974;4.968;2022-08-27T15:32:59;21.80;99.90
9975;DHT22;5028;50.974;4.968;2022-08-27T15:35:35;21.80;99.90
9975;DHT22;5028;50.974;4.968;2022-08-27T15:38:03;21.90;99.90
9975;DHT22;5028;50.974;4.968;2022-08-27T15:40:39;21.80;99.90
9975;DHT22;5028;50.974;4.968;2022-08-27T15:43:09;21.80;99.90
9975;DHT22;5028;50.974;4.968;2022-08-27T15:45:44;21.80;99.90
9975;DHT22;5028;50.974;4.968;2022-08-27T15:48:13;21.80;99.90
9975;DHT22;5028;50.974;4.968;2022-08-27T15:50:49;21.90;99.90
9975;DHT22;5028;50.974;4.968;2022-08-27T15:53:21;21.90;99.90
9975;DHT22;5028;50.974;4.968;2022-08-27T15:55:57;22.00;99.90
9975;DHT22;5028;50.974;4.968;2022-08-27T15:58:25;22.10;99.90
9975;DHT22;5028;50.974;4.968;2022-08-27T16:01:03;22.10;99.90
9975;DHT22;5028;50.974;4.968;2022-08-27T16:03:35;22.10;99.90
9975;DHT22;5028;50.974;4.968;2022-08-27T16:06:17;22.10;99.90
9975;DHT22;5028;50.974;4.968;2022-08-27T16:08:59;22.10;99.90
9975;DHT22;5028;50.974;4.968;2022-08-27T16:11:34;22.00;99.90
9975;DHT22;5028;50.974;4.968;2022-08-27T16:14:02;22.10;99.90
9975;DHT22;5028;50.974;4.968;2022-08-27T16:16:37;22.10;99.90
9975;DHT22;5028;50.974;4.968;2022-08-27T16:19:08;22.00;99.90
9975;DHT22;5028;50.974;4.968;2022-08-27T16:21:43;21.80;99.90
9975;DHT22;5028;50.974;4.968;2022-08-27T16:24:11;21.80;99.90
9975;DHT22;5028;50.974;4.968;2022-08-27T16:26:47;21.70;99.90
9975;DHT22;5028;50.974;4.968;2022-08-27T16:29:16;21.70;99.90
9975;DHT22;5028;50.974;4.968;2022-08-27T16:31:51;21.60;99.90
9975;DHT22;5028;50.974;4.968;2022-08-27T16:34:29;21.50;99.90
9975;DHT22;5028;50.974;4.968;2022-08-27T16:37:04;21.50;99.90
9975;DHT22;5028;50.974;4.968;2022-08-27T16:39:32;21.40;99.90
9975;DHT22;5028;50.974;4.968;2022-08-27T16:42:07;21.40;99.90
9975;DHT22;5028;50.974;4.968;2022-08-27T16:44:37;21.30;99.90
9975;DHT22;5028;50.974;4.968;2022-08-27T16:47:12;21.30;99.90
9975;DHT22;5028;50.974;4.968;2022-08-27T16:49:42;21.30;99.90
9975;DHT22;5028;50.974;4.968;2022-08-27T16:52:34;21.30;99.90
9975;DHT22;5028;50.974;4.968;2022-08-27T16:55:03;21.20;99.90
9975;DHT22;5028;50.974;4.968;2022-08-27T16:57:38;21.10;99.90
9975;DHT22;5028;50.974;4.968;2022-08-27T17:00:08;21.10;99.90
9975;DHT22;5028;50.974;4.968;2022-08-27T17:02:44;21.10;99.90
9975;DHT22;5028;50.974;4.968;2022-08-27T17:05:14;21.10;99.90
9975;DHT22;5028;50.974;4.968;2022-08-27T17:08:06;21.10;99.90